createdAt,value
2022-12-16T00:00:27.419Z,53.08
2022-12-16T00:01:29.991Z,62.38
2022-12-16T00:02:31.954Z,54.85
2022-12-16T00:03:35.048Z,58.50
2022-12-16T00:04:37.144Z,63.30
2022-12-16T00:05:42.992Z,61.40
2022-12-16T00:06:46.618Z,57.80
2022-12-16T00:07:49.526Z,55.53
2022-12-16T00:08:51.947Z,60.15
2022-12-16T00:09:56.165Z,58.60
2022-12-16T00:10:58.664Z,60.90
2022-12-16T00:12:01.154Z,73.22
2022-12-16T00:13:07.278Z,60.92
2022-12-16T00:14:11.491Z,63.17
2022-12-16T00:15:13.957Z,59.78
2022-12-16T00:16:18.191Z,57.90
2022-12-16T00:17:21.047Z,59.90
2022-12-16T00:18:27.519Z,61.25
2022-12-16T00:19:35.177Z,65.30
2022-12-16T00:20:46.818Z,56.70
2022-12-16T00:21:51.474Z,52.80
2022-12-16T00:22:53.252Z,61.47
2022-12-16T00:23:55.968Z,61.35
2022-12-16T00:24:58.911Z,57.83
2022-12-16T00:26:01.556Z,60.80
2022-12-16T00:27:04.198Z,60.95
2022-12-16T00:28:05.982Z,52.90
2022-12-16T00:29:10.978Z,63.58
2022-12-16T00:30:14.766Z,59.38
2022-12-16T00:31:16.941Z,57.83
2022-12-16T00:32:19.607Z,59.58
2022-12-16T00:33:23.878Z,58.53
2022-12-16T00:34:27.340Z,56.22
2022-12-16T00:35:30.444Z,54.15
2022-12-16T00:36:33.465Z,62.15
2022-12-16T00:37:34.941Z,63.78
2022-12-16T00:38:39.240Z,62.63
2022-12-16T00:39:42.583Z,55.30
2022-12-16T00:40:46.499Z,57.10
2022-12-16T00:41:48.019Z,61.30
2022-12-16T00:42:50.475Z,56.63
2022-12-16T00:43:53.903Z,57.20
2022-12-16T00:45:07.638Z,64.35
2022-12-16T00:46:09.453Z,72.53
2022-12-16T00:47:12.097Z,59.60
2022-12-16T00:48:13.891Z,57.45
2022-12-16T00:49:16.530Z,63.90
2022-12-16T00:50:18.212Z,57.50
2022-12-16T00:51:21.334Z,58.53
2022-12-16T00:52:24.893Z,59.88
2022-12-16T00:53:29.463Z,62.55
2022-12-16T00:54:31.143Z,63.17
2022-12-16T00:55:34.090Z,60.72
2022-12-16T00:56:37.024Z,55.42
2022-12-16T00:57:39.643Z,57.60
2022-12-16T00:58:42.643Z,55.03
2022-12-16T00:59:54.160Z,54.92
2022-12-16T01:00:58.799Z,55.83
2022-12-16T01:02:05.085Z,64.30
2022-12-16T01:03:06.875Z,70.18
2022-12-16T01:04:09.444Z,62.08
2022-12-16T01:05:12.666Z,61.28
2022-12-16T01:06:19.346Z,60.63
2022-12-16T01:07:30.940Z,61.15
2022-12-16T01:08:48.107Z,60.80
2022-12-16T01:09:49.662Z,61.05
2022-12-16T01:10:53.306Z,61.28
2022-12-16T01:11:59.352Z,57.70
2022-12-16T01:13:00.867Z,54.25
2022-12-16T01:14:03.345Z,62.88
2022-12-16T01:15:06.791Z,66.45
2022-12-16T01:16:09.330Z,57.40
2022-12-16T01:17:10.887Z,61.80
2022-12-16T01:18:13.432Z,67.55
2022-12-16T01:19:14.970Z,60.55
2022-12-16T01:20:17.618Z,63.08
2022-12-16T01:21:20.089Z,65.07
2022-12-16T01:22:22.496Z,57.90
2022-12-16T01:23:25.946Z,60.20
2022-12-16T01:24:37.435Z,61.85
2022-12-16T01:25:40.028Z,61.42
2022-12-16T01:26:41.905Z,62.50
2022-12-16T01:27:47.026Z,56.08
2022-12-16T01:28:59.844Z,57.38
2022-12-16T01:30:04.365Z,58.85
2022-12-16T01:31:07.558Z,58.90
2022-12-16T01:32:11.982Z,57.83
2022-12-16T01:33:14.558Z,60.53
2022-12-16T01:34:16.873Z,63.22
2022-12-16T01:35:51.462Z,61.28
2022-12-16T01:36:42.043Z,59.63
2022-12-16T01:37:43.594Z,62.10
2022-12-16T01:38:46.077Z,64.18
2022-12-16T01:39:47.845Z,63.13
2022-12-16T01:40:51.473Z,58.97
2022-12-16T01:41:54.434Z,60.05
2022-12-16T01:42:57.295Z,65.05
2022-12-16T01:44:14.611Z,56.22
2022-12-16T01:45:31.255Z,60.75
2022-12-16T01:46:33.791Z,63.55
2022-12-16T01:47:35.627Z,66.38
2022-12-16T01:48:47.755Z,62.10
2022-12-16T01:49:53.243Z,61.28
2022-12-16T01:51:03.300Z,64.07
2022-12-16T01:52:10.429Z,71.50
2022-12-16T01:53:12.409Z,64.22
2022-12-16T01:54:27.243Z,60.20
2022-12-16T01:55:35.112Z,61.72
2022-12-16T01:56:52.367Z,57.15
2022-12-16T01:57:59.610Z,57.42
2022-12-16T01:59:03.107Z,63.03
2022-12-16T02:00:06.682Z,62.42
2022-12-16T02:01:10.924Z,62.20
2022-12-16T02:02:13.758Z,65.97
2022-12-16T02:03:17.272Z,64.43
2022-12-16T02:04:18.890Z,58.88
2022-12-16T02:05:22.479Z,67.28
2022-12-16T02:06:25.347Z,60.30
2022-12-16T02:07:26.935Z,63.17
2022-12-16T02:08:29.421Z,64.15
2022-12-16T02:09:30.993Z,68.65
2022-12-16T02:10:44.970Z,62.10
2022-12-16T02:12:17.052Z,68.90
2022-12-16T02:13:32.180Z,72.50
2022-12-16T02:14:50.351Z,71.88
2022-12-16T02:16:03.662Z,63.25
2022-12-16T02:17:14.894Z,72.15
2022-12-16T02:18:27.146Z,65.75
2022-12-16T02:20:01.225Z,74.68
2022-12-16T02:21:19.314Z,61.15
2022-12-16T02:22:36.802Z,72.43
2022-12-16T02:24:22.492Z,67.10
2022-12-16T02:25:49.559Z,67.43
2022-12-16T02:27:49.867Z,67.93
2022-12-16T02:29:13.822Z,68.65
2022-12-16T02:30:38.109Z,71.35
2022-12-16T02:31:48.105Z,67.97
2022-12-16T02:33:01.461Z,67.43
2022-12-16T02:34:14.411Z,67.30
2022-12-16T02:35:25.393Z,74.47
2022-12-16T02:36:41.865Z,66.18
2022-12-16T02:37:53.629Z,66.68
2022-12-16T02:39:00.616Z,67.75
2022-12-16T02:40:06.673Z,62.97
2022-12-16T02:41:18.614Z,69.60
2022-12-16T02:42:30.467Z,66.82
2022-12-16T02:43:50.099Z,71.13
2022-12-16T02:44:59.405Z,68.15
2022-12-16T02:46:04.050Z,69.07
2022-12-16T02:47:06.611Z,66.07
2022-12-16T02:48:09.159Z,64.30
2022-12-16T02:49:53.597Z,70.00
2022-12-16T02:50:55.106Z,62.50
2022-12-16T02:52:00.138Z,62.88
2022-12-16T02:53:09.699Z,62.55
2022-12-16T02:54:23.077Z,62.88
2022-12-16T02:55:32.998Z,61.20
2022-12-16T02:56:48.507Z,70.63
2022-12-16T02:58:06.653Z,63.22
2022-12-16T02:59:17.234Z,61.67
2022-12-16T03:00:21.865Z,71.15
2022-12-16T03:01:35.552Z,59.70
2022-12-16T03:02:46.069Z,57.92
2022-12-16T03:03:54.692Z,62.97
2022-12-16T03:05:02.694Z,57.78
2022-12-16T03:06:05.732Z,58.97
2022-12-16T03:07:16.372Z,60.42
2022-12-16T03:08:23.196Z,61.38
2022-12-16T03:09:30.913Z,57.92
2022-12-16T03:10:37.331Z,59.92
2022-12-16T03:11:43.420Z,60.33
2022-12-16T03:12:46.003Z,67.35
2022-12-16T03:13:53.694Z,62.72
2022-12-16T03:14:56.029Z,55.90
2022-12-16T03:16:01.150Z,60.97
2022-12-16T03:17:06.975Z,60.50
2022-12-16T03:18:13.217Z,62.33
2022-12-16T03:19:17.338Z,64.45
2022-12-16T03:20:25.765Z,66.97
2022-12-16T03:21:45.367Z,61.85
2022-12-16T03:22:52.654Z,64.85
2022-12-16T03:23:58.521Z,61.35
2022-12-16T03:25:01.070Z,60.47
2022-12-16T03:26:06.297Z,60.95
2022-12-16T03:27:16.658Z,63.38
2022-12-16T03:28:31.682Z,65.88
2022-12-16T03:29:40.277Z,64.13
2022-12-16T03:30:47.299Z,59.78
2022-12-16T03:31:53.734Z,61.00
2022-12-16T03:33:02.474Z,62.72
2022-12-16T03:34:11.265Z,59.97
2022-12-16T03:35:15.667Z,55.83
2022-12-16T03:36:22.974Z,61.60
2022-12-16T03:37:30.832Z,65.13
2022-12-16T03:38:34.888Z,64.03
2022-12-16T03:39:43.050Z,52.97
2022-12-16T03:40:45.148Z,58.17
2022-12-16T03:41:50.648Z,63.33
2022-12-16T03:42:55.049Z,58.30
2022-12-16T03:44:00.168Z,62.63
2022-12-16T03:45:08.311Z,60.70
2022-12-16T03:46:12.786Z,56.95
2022-12-16T03:47:19.761Z,62.78
2022-12-16T03:48:27.002Z,58.90
2022-12-16T03:49:28.643Z,59.75
2022-12-16T03:50:34.249Z,60.45
2022-12-16T03:51:35.827Z,58.95
2022-12-16T03:52:38.279Z,61.45
2022-12-16T03:53:39.940Z,54.55
2022-12-16T03:54:42.383Z,59.33
2022-12-16T03:55:44.056Z,59.50
2022-12-16T03:56:47.528Z,59.13
2022-12-16T03:57:49.013Z,64.88
2022-12-16T03:58:51.492Z,57.78
2022-12-16T03:59:52.968Z,56.90
2022-12-16T04:00:56.199Z,54.92
2022-12-16T04:01:57.910Z,57.80
2022-12-16T04:03:00.834Z,63.75
2022-12-16T04:04:04.172Z,60.85
2022-12-16T04:05:07.432Z,54.90
2022-12-16T04:06:09.701Z,63.13
2022-12-16T04:07:24.655Z,55.92
2022-12-16T04:08:37.362Z,59.42
2022-12-16T04:09:39.651Z,58.55
2022-12-16T04:10:59.726Z,60.38
2022-12-16T04:12:20.159Z,65.93
2022-12-16T04:13:41.512Z,59.17
2022-12-16T04:15:01.784Z,58.00
2022-12-16T04:16:21.855Z,56.03
2022-12-16T04:17:42.019Z,61.13
2022-12-16T04:19:02.415Z,57.15
2022-12-16T04:20:25.343Z,57.72
2022-12-16T04:21:45.552Z,59.95
2022-12-16T04:23:05.974Z,58.78
2022-12-16T04:24:24.023Z,59.80
2022-12-16T04:25:29.903Z,60.10
2022-12-16T04:26:31.449Z,55.17
2022-12-16T04:27:32.960Z,61.53
2022-12-16T04:28:35.522Z,58.22
2022-12-16T04:29:57.084Z,53.30
2022-12-16T04:30:59.723Z,57.38
2022-12-16T04:32:01.393Z,55.97
2022-12-16T04:33:26.111Z,59.35
2022-12-16T04:34:33.943Z,55.97
2022-12-16T04:36:05.803Z,56.47
2022-12-16T04:37:25.931Z,56.95
2022-12-16T04:38:46.498Z,58.53
2022-12-16T04:40:06.810Z,64.18
2022-12-16T04:41:27.011Z,61.17
2022-12-16T04:42:56.753Z,64.75
2022-12-16T04:44:23.522Z,55.90
2022-12-16T04:45:44.362Z,58.92
2022-12-16T04:47:04.701Z,58.42
2022-12-16T04:48:24.762Z,58.63
2022-12-16T04:49:45.031Z,56.30
2022-12-16T04:51:06.844Z,53.47
2022-12-16T04:52:27.189Z,58.50
2022-12-16T04:53:47.157Z,51.90
2022-12-16T04:55:07.451Z,59.53
2022-12-16T04:56:27.254Z,52.95
2022-12-16T04:57:47.686Z,58.08
2022-12-16T04:59:07.940Z,58.90
2022-12-16T05:00:28.932Z,54.60
2022-12-16T05:01:52.167Z,58.90
2022-12-16T05:03:08.731Z,53.97
2022-12-16T05:04:29.127Z,59.05
2022-12-16T05:05:59.437Z,58.88
2022-12-16T05:07:36.312Z,59.33
2022-12-16T05:08:59.526Z,57.40
2022-12-16T05:10:19.847Z,50.75
2022-12-16T05:11:40.226Z,56.13
2022-12-16T05:13:01.146Z,60.38
2022-12-16T05:14:21.460Z,57.33
2022-12-16T05:15:41.875Z,57.40
2022-12-16T05:17:02.587Z,57.95
2022-12-16T05:18:34.787Z,54.35
2022-12-16T05:19:55.047Z,56.40
2022-12-16T05:21:16.265Z,56.38
2022-12-16T05:22:47.685Z,57.10
2022-12-16T05:24:08.313Z,57.03
2022-12-16T05:25:28.750Z,61.50
2022-12-16T05:26:59.896Z,55.17
2022-12-16T05:28:20.287Z,58.90
2022-12-16T05:29:40.546Z,57.45
2022-12-16T05:31:02.017Z,58.95
2022-12-16T05:32:32.423Z,60.78
2022-12-16T05:33:56.349Z,58.33
2022-12-16T05:35:19.622Z,58.10
2022-12-16T05:36:39.830Z,52.95
2022-12-16T05:38:01.361Z,59.38
2022-12-16T05:39:22.034Z,57.00
2022-12-16T05:40:42.288Z,57.67
2022-12-16T05:42:03.061Z,61.03
2022-12-16T05:43:25.439Z,65.22
2022-12-16T05:44:45.948Z,55.55
2022-12-16T05:46:06.239Z,61.45
2022-12-16T05:47:27.422Z,54.28
2022-12-16T05:48:48.006Z,53.15
2022-12-16T05:50:08.288Z,52.85
2022-12-16T05:51:28.552Z,52.17
2022-12-16T05:52:48.871Z,54.70
2022-12-16T05:54:10.483Z,58.08
2022-12-16T05:55:34.093Z,63.70
2022-12-16T05:56:54.598Z,65.93
2022-12-16T05:58:15.938Z,66.90
2022-12-16T05:59:36.034Z,63.17
2022-12-16T06:00:56.343Z,64.20
2022-12-16T06:02:17.036Z,58.83
2022-12-16T06:03:47.562Z,56.08
2022-12-16T06:05:07.770Z,57.08
2022-12-16T06:06:27.994Z,62.88
2022-12-16T06:07:48.231Z,57.97
2022-12-16T06:09:09.674Z,59.15
2022-12-16T06:10:29.944Z,74.93
2022-12-16T06:11:50.341Z,75.25
2022-12-16T06:13:11.984Z,56.67
2022-12-16T06:14:32.670Z,56.00
2022-12-16T06:15:53.829Z,59.78
2022-12-16T06:17:14.116Z,58.13
2022-12-16T06:18:34.493Z,56.80
2022-12-16T06:19:54.820Z,57.15
2022-12-16T06:21:15.803Z,59.75
2022-12-16T06:22:36.070Z,63.15
2022-12-16T06:23:56.115Z,63.90
2022-12-16T06:25:18.885Z,55.00
2022-12-16T06:26:39.220Z,66.55
2022-12-16T06:27:59.579Z,62.17
2022-12-16T06:29:19.791Z,61.80
2022-12-16T06:30:48.697Z,61.25
2022-12-16T06:32:08.579Z,61.08
2022-12-16T06:33:28.956Z,65.20
2022-12-16T06:34:49.204Z,60.45
2022-12-16T06:36:09.136Z,63.45
2022-12-16T06:37:29.463Z,57.30
2022-12-16T06:38:49.730Z,56.65
2022-12-16T06:40:10.255Z,54.13
2022-12-16T06:41:31.935Z,57.17
2022-12-16T06:42:52.723Z,58.83
2022-12-16T06:44:23.169Z,56.97
2022-12-16T06:45:43.603Z,53.80
2022-12-16T06:47:03.930Z,55.22
2022-12-16T06:48:24.756Z,51.40
2022-12-16T06:49:44.926Z,51.78
2022-12-16T06:51:05.224Z,51.55
2022-12-16T06:52:25.592Z,52.10
2022-12-16T06:53:45.943Z,56.95
2022-12-16T06:55:06.263Z,54.45
2022-12-16T06:56:31.486Z,56.08
2022-12-16T06:57:56.025Z,56.38
2022-12-16T06:59:16.481Z,60.80
2022-12-16T07:00:36.822Z,55.70
2022-12-16T07:02:07.226Z,54.13
2022-12-16T07:03:37.919Z,66.43
2022-12-16T07:04:59.087Z,54.70
2022-12-16T07:06:19.561Z,54.55
2022-12-16T07:07:50.027Z,57.78
2022-12-16T07:09:16.105Z,57.42
2022-12-16T07:10:35.983Z,63.13
2022-12-16T07:11:56.212Z,53.15
2022-12-16T07:13:18.622Z,61.20
2022-12-16T07:14:38.962Z,61.78
2022-12-16T07:15:55.693Z,56.22
2022-12-16T07:17:16.931Z,53.80
2022-12-16T07:18:37.594Z,58.30
2022-12-16T07:19:57.790Z,53.45
2022-12-16T07:21:18.064Z,57.00
2022-12-16T07:22:38.367Z,57.42
2022-12-16T07:23:58.595Z,63.20
2022-12-16T07:25:18.802Z,56.88
2022-12-16T07:26:39.143Z,56.83
2022-12-16T07:28:18.974Z,58.00
2022-12-16T07:29:40.584Z,57.28
2022-12-16T07:31:02.017Z,61.72
2022-12-16T07:32:23.833Z,57.13
2022-12-16T07:33:43.584Z,56.38
2022-12-16T07:35:03.822Z,61.35
2022-12-16T07:36:24.715Z,59.53
2022-12-16T07:37:44.957Z,58.65
2022-12-16T07:39:05.208Z,53.28
2022-12-16T07:40:29.249Z,60.85
2022-12-16T07:41:50.790Z,58.38
2022-12-16T07:43:10.959Z,58.55
2022-12-16T07:44:31.290Z,58.50
2022-12-16T07:45:52.969Z,59.63
2022-12-16T07:47:14.174Z,65.70
2022-12-16T07:48:34.454Z,57.47
2022-12-16T07:49:55.533Z,57.22
2022-12-16T07:51:16.293Z,64.40
2022-12-16T07:52:36.325Z,58.33
2022-12-16T07:53:56.638Z,56.88
2022-12-16T07:55:16.902Z,58.53
2022-12-16T07:56:37.081Z,54.35
2022-12-16T07:57:57.397Z,57.50
2022-12-16T07:59:17.619Z,58.47
2022-12-16T08:00:41.642Z,58.20
2022-12-16T08:02:04.016Z,58.42
2022-12-16T08:03:24.210Z,57.00
2022-12-16T08:04:45.421Z,51.88
2022-12-16T08:06:05.687Z,50.85
2022-12-16T08:07:26.148Z,53.45
2022-12-16T08:08:46.270Z,51.83
2022-12-16T08:10:06.689Z,62.42
2022-12-16T08:11:27.143Z,59.42
2022-12-16T08:12:47.449Z,56.60
2022-12-16T08:14:07.764Z,61.47
2022-12-16T08:15:30.291Z,60.17
2022-12-16T08:16:50.690Z,56.40
2022-12-16T08:18:13.140Z,57.03
2022-12-16T08:19:33.345Z,55.08
2022-12-16T08:20:53.534Z,53.67
2022-12-16T08:22:15.319Z,54.75
2022-12-16T08:23:36.006Z,53.90
2022-12-16T08:24:56.284Z,56.55
2022-12-16T08:26:16.991Z,51.90
2022-12-16T08:27:39.318Z,51.72
2022-12-16T08:29:20.193Z,49.85
2022-12-16T08:30:42.032Z,55.60
2022-12-16T08:32:02.278Z,53.95
2022-12-16T08:33:23.698Z,62.17
2022-12-16T08:34:44.009Z,54.75
2022-12-16T08:36:04.415Z,50.00
2022-12-16T08:37:24.806Z,58.53
2022-12-16T08:38:44.800Z,51.35
2022-12-16T08:40:33.708Z,52.17
2022-12-16T08:41:45.005Z,59.83
2022-12-16T08:43:10.877Z,56.08
2022-12-16T08:44:32.604Z,52.47
2022-12-16T08:45:52.729Z,48.88
2022-12-16T08:47:13.284Z,51.65
2022-12-16T08:48:34.893Z,48.30
2022-12-16T08:50:04.706Z,51.15
2022-12-16T08:51:26.614Z,51.88
2022-12-16T08:52:46.970Z,52.55
2022-12-16T08:54:07.324Z,55.10
2022-12-16T08:55:29.686Z,61.80
2022-12-16T08:56:50.236Z,66.32
2022-12-16T08:58:13.083Z,49.92
2022-12-16T08:59:34.390Z,59.30
2022-12-16T09:01:07.330Z,50.78
2022-12-16T09:02:29.914Z,51.35
2022-12-16T09:03:51.594Z,53.22
2022-12-16T09:05:11.825Z,56.97
2022-12-16T09:06:35.628Z,55.92
2022-12-16T09:08:00.250Z,57.13
2022-12-16T09:09:20.215Z,55.30
2022-12-16T09:10:40.807Z,57.58
2022-12-16T09:12:00.813Z,70.75
2022-12-16T09:13:25.195Z,49.20
2022-12-16T09:14:45.499Z,59.90
2022-12-16T09:16:05.642Z,54.50
2022-12-16T09:17:25.915Z,52.42
2022-12-16T09:18:46.152Z,56.40
2022-12-16T09:20:07.415Z,60.25
2022-12-16T09:21:31.760Z,58.35
2022-12-16T09:22:53.542Z,53.08
2022-12-16T09:24:15.531Z,63.53
2022-12-16T09:25:35.796Z,52.58
2022-12-16T09:26:56.213Z,56.22
2022-12-16T09:28:21.916Z,57.60
2022-12-16T09:29:45.098Z,61.08
2022-12-16T09:31:05.665Z,79.32
2022-12-16T09:32:35.723Z,59.58
2022-12-16T09:33:58.281Z,60.17
2022-12-16T09:35:23.154Z,63.80
2022-12-16T09:36:43.395Z,57.25
2022-12-16T09:38:03.929Z,63.17
2022-12-16T09:39:24.259Z,54.28
2022-12-16T09:40:44.677Z,55.40
2022-12-16T09:42:19.945Z,66.93
2022-12-16T09:43:54.401Z,60.03
2022-12-16T09:45:22.355Z,60.53
2022-12-16T09:46:50.668Z,60.40
2022-12-16T09:48:17.918Z,60.95
2022-12-16T09:49:47.331Z,60.47
2022-12-16T09:51:12.628Z,65.55
2022-12-16T09:52:37.080Z,66.30
2022-12-16T09:53:59.385Z,64.65
2022-12-16T09:55:21.753Z,70.18
2022-12-16T09:56:49.639Z,61.05
2022-12-16T09:58:10.838Z,61.83
2022-12-16T09:59:34.124Z,71.20
2022-12-16T10:00:55.076Z,62.88
2022-12-16T10:02:15.512Z,71.07
2022-12-16T10:03:41.441Z,64.15
2022-12-16T10:05:11.625Z,70.30
2022-12-16T10:07:02.530Z,65.55
2022-12-16T10:08:36.505Z,56.45
2022-12-16T10:10:04.922Z,66.57
2022-12-16T10:11:30.622Z,61.45
2022-12-16T10:12:58.929Z,64.32
2022-12-16T10:14:24.103Z,65.68
2022-12-16T10:15:52.569Z,60.28
2022-12-16T10:17:23.411Z,70.78
2022-12-16T10:18:59.936Z,61.05
2022-12-16T10:20:29.385Z,66.30
2022-12-16T10:22:03.437Z,70.88
2022-12-16T10:23:34.134Z,63.53
2022-12-16T10:25:07.158Z,84.47
2022-12-16T10:26:35.610Z,76.65
2022-12-16T10:28:01.992Z,71.90
2022-12-16T10:29:38.016Z,77.53
2022-12-16T10:30:59.733Z,84.72
2022-12-16T10:32:25.425Z,69.40
2022-12-16T10:33:53.127Z,74.47
2022-12-16T10:35:13.423Z,81.72
2022-12-16T10:36:39.168Z,74.20
2022-12-16T10:37:57.913Z,78.90
2022-12-16T10:39:21.057Z,88.80
2022-12-16T10:40:44.907Z,79.20
2022-12-16T10:42:09.920Z,72.82
2022-12-16T10:43:39.989Z,79.80
2022-12-16T10:45:10.748Z,76.43
2022-12-16T10:46:32.398Z,80.72
2022-12-16T10:47:52.343Z,65.35
2022-12-16T10:49:12.740Z,73.35
2022-12-16T10:50:33.899Z,81.35
2022-12-16T10:51:54.157Z,81.57
2022-12-16T10:53:28.639Z,72.47
2022-12-16T10:55:02.527Z,72.65
2022-12-16T10:56:43.499Z,75.20
2022-12-16T10:58:14.769Z,73.05
2022-12-16T10:59:35.090Z,73.03
2022-12-16T11:01:01.258Z,68.35
2022-12-16T11:02:23.278Z,82.03
2022-12-16T11:03:45.382Z,86.90
2022-12-16T11:05:07.275Z,88.20
2022-12-16T11:06:29.175Z,94.68
2022-12-16T11:07:52.617Z,96.95
2022-12-16T11:09:14.651Z,100.28
2022-12-16T11:10:50.296Z,90.70
2022-12-16T11:12:11.528Z,101.95
2022-12-16T11:13:36.830Z,92.70
2022-12-16T11:15:27.510Z,103.15
2022-12-16T11:16:40.102Z,110.35
2022-12-16T11:18:20.683Z,104.90
2022-12-16T11:19:42.837Z,121.75
2022-12-16T11:21:07.038Z,116.07
2022-12-16T11:22:39.078Z,101.53
2022-12-16T11:24:25.094Z,127.30
2022-12-16T11:25:45.791Z,115.82
2022-12-16T11:27:11.457Z,124.72
2022-12-16T11:28:33.815Z,126.78
2022-12-16T11:30:08.273Z,116.20
2022-12-16T11:31:33.737Z,112.88
2022-12-16T11:32:55.266Z,114.32
2022-12-16T11:34:22.272Z,122.57
2022-12-16T11:35:46.294Z,117.20
2022-12-16T11:37:10.927Z,116.88
2022-12-16T11:38:42.372Z,98.35
2022-12-16T11:40:03.875Z,105.35
2022-12-16T11:41:25.596Z,114.75
2022-12-16T11:43:09.475Z,113.60
2022-12-16T11:44:38.399Z,119.45
2022-12-16T11:45:58.998Z,110.95
2022-12-16T11:47:19.360Z,89.28
2022-12-16T11:48:55.275Z,96.68
2022-12-16T11:50:17.248Z,100.25
2022-12-16T11:51:49.995Z,88.82
2022-12-16T11:53:24.005Z,107.03
2022-12-16T11:54:48.897Z,107.15
2022-12-16T11:56:16.388Z,107.03
2022-12-16T11:57:41.407Z,98.57
2022-12-16T11:59:05.990Z,94.95
2022-12-16T12:00:33.462Z,92.13
2022-12-16T12:02:01.302Z,96.28
2022-12-16T12:03:25.521Z,93.72
2022-12-16T12:04:45.823Z,97.28
2022-12-16T12:06:18.239Z,99.60
2022-12-16T12:07:53.518Z,122.50
2022-12-16T12:09:23.117Z,127.95
2022-12-16T12:11:07.885Z,98.22
2022-12-16T12:12:39.402Z,116.68
2022-12-16T12:14:22.571Z,121.93
2022-12-16T12:15:49.930Z,115.85
2022-12-16T12:17:23.421Z,118.18
2022-12-16T12:18:59.457Z,115.22
2022-12-16T12:20:43.192Z,124.22
2022-12-16T12:22:10.118Z,111.88
2022-12-16T12:23:33.498Z,106.43
2022-12-16T12:25:01.080Z,115.43
2022-12-16T12:26:30.453Z,109.38
2022-12-16T12:28:03.064Z,97.38
2022-12-16T12:29:33.117Z,100.68
2022-12-16T12:31:01.636Z,110.00
2022-12-16T12:32:28.154Z,117.15
2022-12-16T12:33:56.236Z,108.22
2022-12-16T12:35:29.314Z,103.95
2022-12-16T12:36:57.174Z,97.90
2022-12-16T12:38:23.378Z,94.13
2022-12-16T12:40:03.291Z,100.85
2022-12-16T12:41:33.703Z,114.05
2022-12-16T12:43:03.827Z,111.57
2022-12-16T12:44:37.073Z,116.43
2022-12-16T12:46:20.174Z,107.28
2022-12-16T12:47:41.466Z,102.75
2022-12-16T12:49:10.872Z,104.03
2022-12-16T12:50:39.745Z,99.05
2022-12-16T12:52:10.608Z,92.03
2022-12-16T12:53:44.563Z,82.22
2022-12-16T12:55:12.438Z,94.38
2022-12-16T12:56:46.786Z,89.28
2022-12-16T12:58:10.235Z,68.70
2022-12-16T12:59:35.078Z,76.68
2022-12-16T13:01:03.040Z,88.70
2022-12-16T13:02:32.226Z,86.45
2022-12-16T13:03:57.230Z,97.88
2022-12-16T13:05:23.992Z,98.03
2022-12-16T13:06:55.704Z,116.07
2022-12-16T13:09:00.706Z,99.65
2022-12-16T13:10:34.304Z,108.80
2022-12-16T13:11:55.175Z,101.93
2022-12-16T13:13:52.906Z,91.53
2022-12-16T13:15:21.204Z,99.85
2022-12-16T13:17:25.892Z,94.63
2022-12-16T13:18:48.014Z,88.80
2022-12-16T13:20:17.527Z,86.28
2022-12-16T13:21:59.359Z,92.18
2022-12-16T13:23:48.556Z,94.90
2022-12-16T13:25:10.758Z,93.03
2022-12-16T13:26:33.616Z,86.20
2022-12-16T13:28:13.074Z,99.35
2022-12-16T13:29:38.613Z,88.43
2022-12-16T13:31:23.288Z,85.95
2022-12-16T13:33:00.718Z,84.90
2022-12-16T13:34:25.993Z,97.57
2022-12-16T13:35:46.457Z,93.20
2022-12-16T13:37:15.681Z,94.35
2022-12-16T13:38:40.398Z,86.50
2022-12-16T13:40:02.256Z,89.57
2022-12-16T13:41:23.985Z,85.80
2022-12-16T13:43:06.048Z,86.65
2022-12-16T13:44:27.156Z,100.18
2022-12-16T13:45:50.901Z,96.78
2022-12-16T13:47:14.463Z,104.55
2022-12-16T13:48:53.722Z,96.43
2022-12-16T13:50:14.055Z,98.78
2022-12-16T13:52:15.433Z,108.22
2022-12-16T13:53:38.209Z,85.68
2022-12-16T13:55:04.771Z,100.45
2022-12-16T13:56:25.580Z,81.70
2022-12-16T13:57:48.844Z,72.03
2022-12-16T13:59:11.786Z,84.10
2022-12-16T14:00:37.037Z,88.68
2022-12-16T14:02:06.955Z,90.18
2022-12-16T14:03:33.933Z,80.60
2022-12-16T14:04:58.870Z,74.82
2022-12-16T14:06:35.292Z,82.22
2022-12-16T14:07:59.265Z,76.50
2022-12-16T14:09:22.868Z,93.53
2022-12-16T14:10:47.266Z,84.60
2022-12-16T14:12:14.357Z,88.07
2022-12-16T14:13:42.090Z,85.35
2022-12-16T14:15:07.164Z,85.90
2022-12-16T14:16:34.066Z,76.80
2022-12-16T14:18:02.515Z,74.97
2022-12-16T14:19:36.078Z,87.40
2022-12-16T14:21:05.028Z,80.30
2022-12-16T14:22:39.959Z,78.03
2022-12-16T14:24:12.131Z,86.60
2022-12-16T14:25:33.956Z,88.00
2022-12-16T14:26:56.994Z,109.30
2022-12-16T14:28:17.372Z,99.20
2022-12-16T14:29:41.846Z,85.68
2022-12-16T14:31:02.196Z,92.45
2022-12-16T14:32:37.104Z,103.07
2022-12-16T14:33:57.471Z,97.00
2022-12-16T14:35:20.898Z,91.80
2022-12-16T14:36:43.714Z,89.68
2022-12-16T14:38:04.530Z,84.43
2022-12-16T14:39:29.201Z,85.00
2022-12-16T14:40:51.604Z,79.38
2022-12-16T14:42:12.423Z,100.25
2022-12-16T14:43:35.088Z,78.00
2022-12-16T14:44:55.965Z,111.43
2022-12-16T14:46:17.097Z,100.65
2022-12-16T14:47:40.347Z,88.22
2022-12-16T14:49:04.750Z,99.40
2022-12-16T14:50:38.452Z,94.43
2022-12-16T14:52:06.880Z,89.85
2022-12-16T14:53:37.026Z,87.88
2022-12-16T14:55:00.640Z,87.55
2022-12-16T14:56:48.729Z,73.55
2022-12-16T14:58:21.581Z,69.68
2022-12-16T14:59:42.050Z,78.95
2022-12-16T15:01:02.406Z,99.47
2022-12-16T15:02:38.564Z,70.90
2022-12-16T15:04:00.702Z,96.53
2022-12-16T15:05:21.374Z,84.68
2022-12-16T15:06:46.283Z,99.30
2022-12-16T15:08:06.783Z,95.35
2022-12-16T15:09:36.306Z,104.30
2022-12-16T15:10:56.700Z,101.63
2022-12-16T15:12:17.001Z,104.90
2022-12-16T15:13:37.934Z,97.78
2022-12-16T15:14:59.786Z,95.93
2022-12-16T15:16:21.315Z,87.72
2022-12-16T15:17:43.668Z,105.25
2022-12-16T15:19:08.481Z,106.43
2022-12-16T15:20:35.266Z,86.38
2022-12-16T15:21:58.516Z,85.28
2022-12-16T15:23:19.183Z,105.78
2022-12-16T15:24:45.041Z,109.15
2022-12-16T15:26:10.878Z,100.35
2022-12-16T15:27:43.235Z,62.17
2022-12-16T15:29:03.691Z,89.25
2022-12-16T15:30:56.536Z,83.28
2022-12-16T15:32:16.658Z,75.13
2022-12-16T15:33:39.424Z,94.65
2022-12-16T15:35:06.331Z,81.05
2022-12-16T15:36:40.033Z,78.65
2022-12-16T15:38:04.629Z,90.57
2022-12-16T15:39:29.362Z,107.18
2022-12-16T15:40:58.986Z,106.13
2022-12-16T15:42:19.328Z,92.22
2022-12-16T15:43:46.865Z,106.05
2022-12-16T15:45:09.624Z,99.15
2022-12-16T15:46:41.043Z,107.32
2022-12-16T15:48:01.154Z,103.28
2022-12-16T15:49:22.054Z,81.72
2022-12-16T15:50:45.255Z,107.30
2022-12-16T15:52:07.121Z,104.30
2022-12-16T15:53:46.719Z,93.78
2022-12-16T15:55:11.684Z,98.75
2022-12-16T15:56:36.388Z,106.13
2022-12-16T15:57:57.738Z,104.15
2022-12-16T15:59:32.700Z,108.63
2022-12-16T16:00:53.580Z,111.38
2022-12-16T16:02:16.121Z,112.80
2022-12-16T16:03:42.376Z,78.45
2022-12-16T16:05:02.563Z,94.20
2022-12-16T16:06:22.826Z,78.60
2022-12-16T16:07:43.378Z,89.82
2022-12-16T16:09:08.649Z,105.97
2022-12-16T16:10:34.459Z,83.80
2022-12-16T16:11:54.857Z,112.97
2022-12-16T16:13:14.980Z,108.93
2022-12-16T16:14:35.138Z,91.68
2022-12-16T16:15:55.619Z,95.03
2022-12-16T16:17:15.779Z,102.90
2022-12-16T16:18:36.086Z,81.25
2022-12-16T16:20:01.628Z,82.28
2022-12-16T16:21:28.998Z,78.80
2022-12-16T16:22:49.479Z,92.53
2022-12-16T16:24:10.832Z,87.10
2022-12-16T16:25:31.097Z,92.15
2022-12-16T16:26:51.467Z,86.60
2022-12-16T16:28:11.828Z,91.82
2022-12-16T16:29:41.983Z,107.55
2022-12-16T16:31:03.575Z,88.85
2022-12-16T16:32:27.222Z,71.97
2022-12-16T16:33:47.489Z,80.18
2022-12-16T16:35:22.286Z,80.63
2022-12-16T16:36:42.186Z,92.35
2022-12-16T16:38:02.556Z,85.43
2022-12-16T16:39:24.245Z,83.80
2022-12-16T16:40:49.486Z,85.50
2022-12-16T16:42:18.115Z,68.93
2022-12-16T16:43:38.437Z,82.53
2022-12-16T16:44:58.504Z,76.03
2022-12-16T16:46:18.816Z,90.28
2022-12-16T16:47:38.799Z,73.93
2022-12-16T16:48:59.501Z,78.97
2022-12-16T16:50:19.881Z,68.38
2022-12-16T16:51:48.486Z,73.28
2022-12-16T16:53:08.726Z,71.20
2022-12-16T16:54:30.605Z,80.15
2022-12-16T16:55:50.860Z,78.90
2022-12-16T16:57:11.016Z,74.30
2022-12-16T16:58:35.027Z,76.55
2022-12-16T16:59:55.269Z,78.38